sensor_id;sensor_type;location;lat;lon;timestamp;temperature;humidity
10468;DHT22;5281;48.878;9.394;2024-02-23T00:01:20;9.90;99.90
10468;DHT22;5281;48.878;9.394;2024-02-23T00:03:47;9.80;99.90
10468;DHT22;5281;48.878;9.394;2024-02-23T00:06:14;9.80;99.90
10468;DHT22;5281;48.878;9.394;2024-02-23T00:08:41;9.80;99.90
10468;DHT22;5281;48.878;9.394;2024-02-23T00:11:08;9.70;99.90
10468;DHT22;5281;48.878;9.394;2024-02-23T00:13:36;9.80;99.90
10468;DHT22;5281;48.878;9.394;2024-02-23T00:16:03;9.70;99.90
10468;DHT22;5281;48.878;9.394;2024-02-23T00:18:30;9.70;99.90
10468;DHT22;5281;48.878;9.394;2024-02-23T00:20:57;9.80;99.90
10468;DHT22;5281;48.878;9.394;2024-02-23T00:23:23;9.90;99.90
10468;DHT22;5281;48.878;9.394;2024-02-23T00:25:50;9.90;99.90
10468;DHT22;5281;48.878;9.394;2024-02-23T00:28:17;9.90;99.90
10468;DHT22;5281;48.878;9.394;2024-02-23T00:30:45;9.90;99.90
10468;DHT22;5281;48.878;9.394;2024-02-23T00:33:11;9.80;99.90
10468;DHT22;5281;48.878;9.394;2024-02-23T00:35:38;9.80;99.90
10468;DHT22;5281;48.878;9.394;2024-02-23T00:38:05;9.70;99.90
10468;DHT22;5281;48.878;9.394;2024-02-23T00:40:33;9.70;99.90
10468;DHT22;5281;48.878;9.394;2024-02-23T00:42:59;9.60;99.90
10468;DHT22;5281;48.878;9.394;2024-02-23T00:45:26;9.70;99.90
10468;DHT22;5281;48.878;9.394;2024-02-23T00:47:54;9.60;99.90
10468;DHT22;5281;48.878;9.394;2024-02-23T00:50:22;9.70;99.90
10468;DHT22;5281;48.878;9.394;2024-02-23T00:52:51;9.60;99.90
10468;DHT22;5281;48.878;9.394;2024-02-23T00:55:18;9.50;99.90
10468;DHT22;5281;48.878;9.394;2024-02-23T00:57:45;9.50;99.90
10468;DHT22;5281;48.878;9.394;2024-02-23T01:00:12;9.50;99.90
10468;DHT22;5281;48.878;9.394;2024-02-23T01:02:39;9.50;99.90
10468;DHT22;5281;48.878;9.394;2024-02-23T01:05:08;9.50;99.90
10468;DHT22;5281;48.878;9.394;2024-02-23T01:07:36;9.60;99.90
10468;DHT22;5281;48.878;9.394;2024-02-23T01:10:03;9.50;99.90
10468;DHT22;5281;48.878;9.394;2024-02-23T01:12:29;9.50;99.90
10468;DHT22;5281;48.878;9.394;2024-02-23T01:14:56;9.50;99.90
10468;DHT22;5281;48.878;9.394;2024-02-23T01:17:23;9.50;99.90
10468;DHT22;5281;48.878;9.394;2024-02-23T01:19:49;9.50;99.90
10468;DHT22;5281;48.878;9.394;2024-02-23T01:22:18;9.40;99.90
10468;DHT22;5281;48.878;9.394;2024-02-23T01:24:45;9.40;99.90
10468;DHT22;5281;48.878;9.394;2024-02-23T01:27:12;9.40;99.90
10468;DHT22;5281;48.878;9.394;2024-02-23T01:29:38;9.50;99.90
10468;DHT22;5281;48.878;9.394;2024-02-23T01:32:05;9.50;99.90
10468;DHT22;5281;48.878;9.394;2024-02-23T01:34:32;9.60;99.90
10468;DHT22;5281;48.878;9.394;2024-02-23T01:36:59;9.60;99.90
10468;DHT22;5281;48.878;9.394;2024-02-23T01:39:27;9.60;99.90
10468;DHT22;5281;48.878;9.394;2024-02-23T01:41:54;9.60;99.90
10468;DHT22;5281;48.878;9.394;2024-02-23T01:44:20;9.50;99.90
10468;DHT22;5281;48.878;9.394;2024-02-23T01:46:48;9.50;99.90
10468;DHT22;5281;48.878;9.394;2024-02-23T01:49:15;9.50;99.90
10468;DHT22;5281;48.878;9.394;2024-02-23T01:51:43;9.50;99.90
10468;DHT22;5281;48.878;9.394;2024-02-23T01:54:10;9.50;99.90
10468;DHT22;5281;48.878;9.394;2024-02-23T01:56:38;9.50;99.90
10468;DHT22;5281;48.878;9.394;2024-02-23T01:59:06;9.50;99.90
10468;DHT22;5281;48.878;9.394;2024-02-23T02:01:33;9.50;99.90
10468;DHT22;5281;48.878;9.394;2024-02-23T02:03:59;9.70;99.90
10468;DHT22;5281;48.878;9.394;2024-02-23T02:06:26;9.70;99.90
10468;DHT22;5281;48.878;9.394;2024-02-23T02:08:53;9.70;99.90
10468;DHT22;5281;48.878;9.394;2024-02-23T02:11:19;9.70;99.90
10468;DHT22;5281;48.878;9.394;2024-02-23T02:13:47;9.80;99.90
10468;DHT22;5281;48.878;9.394;2024-02-23T02:16:14;9.80;99.90
10468;DHT22;5281;48.878;9.394;2024-02-23T02:18:41;9.90;99.90
10468;DHT22;5281;48.878;9.394;2024-02-23T02:21:10;9.90;99.90
10468;DHT22;5281;48.878;9.394;2024-02-23T02:23:36;9.80;99.90
10468;DHT22;5281;48.878;9.394;2024-02-23T02:26:03;9.90;99.90
10468;DHT22;5281;48.878;9.394;2024-02-23T02:28:30;9.90;99.90
10468;DHT22;5281;48.878;9.394;2024-02-23T02:30:59;9.90;99.90
10468;DHT22;5281;48.878;9.394;2024-02-23T02:33:25;9.90;99.90
10468;DHT22;5281;48.878;9.394;2024-02-23T02:35:52;9.90;99.90
10468;DHT22;5281;48.878;9.394;2024-02-23T02:38:19;9.90;99.90
10468;DHT22;5281;48.878;9.394;2024-02-23T02:40:45;10.00;99.90
10468;DHT22;5281;48.878;9.394;2024-02-23T02:43:12;10.00;99.90
10468;DHT22;5281;48.878;9.394;2024-02-23T02:45:39;10.00;99.90
10468;DHT22;5281;48.878;9.394;2024-02-23T02:48:07;9.90;99.90
10468;DHT22;5281;48.878;9.394;2024-02-23T02:50:34;9.80;99.90
10468;DHT22;5281;48.878;9.394;2024-02-23T02:53:00;9.80;99.90
10468;DHT22;5281;48.878;9.394;2024-02-23T02:55:27;9.90;99.90
10468;DHT22;5281;48.878;9.394;2024-02-23T02:57:54;9.80;99.90
10468;DHT22;5281;48.878;9.394;2024-02-23T03:00:21;9.80;99.90
10468;DHT22;5281;48.878;9.394;2024-02-23T03:02:47;9.80;99.90
10468;DHT22;5281;48.878;9.394;2024-02-23T03:05:16;9.80;99.90
10468;DHT22;5281;48.878;9.394;2024-02-23T03:07:42;9.80;99.90
10468;DHT22;5281;48.878;9.394;2024-02-23T03:10:09;9.80;99.90
10468;DHT22;5281;48.878;9.394;2024-02-23T03:12:36;9.70;99.90
10468;DHT22;5281;48.878;9.394;2024-02-23T03:15:03;9.60;99.90
10468;DHT22;5281;48.878;9.394;2024-02-23T03:17:30;9.60;99.90
10468;DHT22;5281;48.878;9.394;2024-02-23T03:19:58;9.50;99.90
10468;DHT22;5281;48.878;9.394;2024-02-23T03:22:26;9.40;99.90
10468;DHT22;5281;48.878;9.394;2024-02-23T03:24:53;9.30;99.90
10468;DHT22;5281;48.878;9.394;2024-02-23T03:27:20;9.30;99.90
10468;DHT22;5281;48.878;9.394;2024-02-23T03:29:53;9.30;99.90
10468;DHT22;5281;48.878;9.394;2024-02-23T03:32:20;9.20;99.90
10468;DHT22;5281;48.878;9.394;2024-02-23T03:34:46;9.20;99.90
10468;DHT22;5281;48.878;9.394;2024-02-23T03:37:13;9.10;99.90
10468;DHT22;5281;48.878;9.394;2024-02-23T03:39:41;9.00;99.90
10468;DHT22;5281;48.878;9.394;2024-02-23T03:42:08;8.90;99.90
10468;DHT22;5281;48.878;9.394;2024-02-23T03:44:35;9.00;99.90
10468;DHT22;5281;48.878;9.394;2024-02-23T03:47:01;9.10;99.90
10468;DHT22;5281;48.878;9.394;2024-02-23T03:49:28;9.00;99.90
10468;DHT22;5281;48.878;9.394;2024-02-23T03:51:55;8.90;99.90
10468;DHT22;5281;48.878;9.394;2024-02-23T03:54:21;8.90;99.90
10468;DHT22;5281;48.878;9.394;2024-02-23T03:56:49;9.00;99.90
10468;DHT22;5281;48.878;9.394;2024-02-23T03:59:16;9.00;99.90
10468;DHT22;5281;48.878;9.394;2024-02-23T04:01:43;9.10;99.90
10468;DHT22;5281;48.878;9.394;2024-02-23T04:04:10;9.10;99.90
10468;DHT22;5281;48.878;9.394;2024-02-23T04:06:37;9.10;99.90
10468;DHT22;5281;48.878;9.394;2024-02-23T04:09:04;9.10;99.90
10468;DHT22;5281;48.878;9.394;2024-02-23T04:11:31;9.10;99.90
10468;DHT22;5281;48.878;9.394;2024-02-23T04:13:59;9.10;99.90
10468;DHT22;5281;48.878;9.394;2024-02-23T04:16:26;9.10;99.90
10468;DHT22;5281;48.878;9.394;2024-02-23T04:18:53;9.00;99.90
10468;DHT22;5281;48.878;9.394;2024-02-23T04:21:21;9.00;99.90
10468;DHT22;5281;48.878;9.394;2024-02-23T04:23:48;9.00;99.90
10468;DHT22;5281;48.878;9.394;2024-02-23T04:26:15;8.90;99.90
10468;DHT22;5281;48.878;9.394;2024-02-23T04:28:42;8.90;99.90
10468;DHT22;5281;48.878;9.394;2024-02-23T04:31:10;8.80;99.90
10468;DHT22;5281;48.878;9.394;2024-02-23T04:33:37;8.80;99.90
10468;DHT22;5281;48.878;9.394;2024-02-23T04:36:05;8.80;99.90
10468;DHT22;5281;48.878;9.394;2024-02-23T04:38:32;8.80;99.90
10468;DHT22;5281;48.878;9.394;2024-02-23T04:41:02;8.80;99.90
10468;DHT22;5281;48.878;9.394;2024-02-23T04:43:29;8.80;99.90
10468;DHT22;5281;48.878;9.394;2024-02-23T04:45:56;8.70;99.90
10468;DHT22;5281;48.878;9.394;2024-02-23T04:48:24;8.60;99.90
10468;DHT22;5281;48.878;9.394;2024-02-23T04:50:51;8.60;99.90
10468;DHT22;5281;48.878;9.394;2024-02-23T04:53:17;8.60;99.90
10468;DHT22;5281;48.878;9.394;2024-02-23T04:55:44;8.60;99.90
10468;DHT22;5281;48.878;9.394;2024-02-23T04:58:11;8.50;99.90
10468;DHT22;5281;48.878;9.394;2024-02-23T05:00:38;8.50;99.90
10468;DHT22;5281;48.878;9.394;2024-02-23T05:03:05;8.50;99.90
10468;DHT22;5281;48.878;9.394;2024-02-23T05:05:35;8.50;99.90
10468;DHT22;5281;48.878;9.394;2024-02-23T05:08:02;8.50;99.90
10468;DHT22;5281;48.878;9.394;2024-02-23T05:10:29;8.40;99.90
10468;DHT22;5281;48.878;9.394;2024-02-23T05:12:55;8.40;99.90
10468;DHT22;5281;48.878;9.394;2024-02-23T05:15:22;8.40;99.90
10468;DHT22;5281;48.878;9.394;2024-02-23T05:17:49;8.40;99.90
10468;DHT22;5281;48.878;9.394;2024-02-23T05:20:16;8.50;99.90
10468;DHT22;5281;48.878;9.394;2024-02-23T05:22:44;8.40;99.90
10468;DHT22;5281;48.878;9.394;2024-02-23T05:25:10;8.40;99.90
10468;DHT22;5281;48.878;9.394;2024-02-23T05:27:37;8.30;99.90
10468;DHT22;5281;48.878;9.394;2024-02-23T05:30:03;8.20;99.90
10468;DHT22;5281;48.878;9.394;2024-02-23T05:32:30;8.20;99.90
10468;DHT22;5281;48.878;9.394;2024-02-23T05:34:57;8.10;99.90
10468;DHT22;5281;48.878;9.394;2024-02-23T05:37:23;8.00;99.90
10468;DHT22;5281;48.878;9.394;2024-02-23T05:39:53;8.10;99.90
10468;DHT22;5281;48.878;9.394;2024-02-23T05:42:20;8.10;99.90
10468;DHT22;5281;48.878;9.394;2024-02-23T05:44:47;8.10;99.90
10468;DHT22;5281;48.878;9.394;2024-02-23T05:47:14;8.10;99.90
10468;DHT22;5281;48.878;9.394;2024-02-23T05:49:40;8.10;99.90
10468;DHT22;5281;48.878;9.394;2024-02-23T05:52:07;8.10;99.90
10468;DHT22;5281;48.878;9.394;2024-02-23T05:54:34;8.10;99.90
10468;DHT22;5281;48.878;9.394;2024-02-23T05:57:03;8.10;99.90
10468;DHT22;5281;48.878;9.394;2024-02-23T05:59:30;8.10;99.90
10468;DHT22;5281;48.878;9.394;2024-02-23T06:01:57;8.10;99.90
10468;DHT22;5281;48.878;9.394;2024-02-23T06:04:24;8.10;99.90
10468;DHT22;5281;48.878;9.394;2024-02-23T06:06:51;8.00;99.90
10468;DHT22;5281;48.878;9.394;2024-02-23T06:09:17;8.00;99.90
10468;DHT22;5281;48.878;9.394;2024-02-23T06:11:45;7.90;99.90
10468;DHT22;5281;48.878;9.394;2024-02-23T06:14:13;7.90;99.90
10468;DHT22;5281;48.878;9.394;2024-02-23T06:16:39;7.90;99.90
10468;DHT22;5281;48.878;9.394;2024-02-23T06:19:06;7.80;99.90
10468;DHT22;5281;48.878;9.394;2024-02-23T06:21:32;7.80;99.90
10468;DHT22;5281;48.878;9.394;2024-02-23T06:23:59;7.80;99.90
10468;DHT22;5281;48.878;9.394;2024-02-23T06:26:25;7.70;99.90
10468;DHT22;5281;48.878;9.394;2024-02-23T06:28:52;7.70;99.90
10468;DHT22;5281;48.878;9.394;2024-02-23T06:31:20;7.70;99.90
10468;DHT22;5281;48.878;9.394;2024-02-23T06:33:47;7.70;99.90
10468;DHT22;5281;48.878;9.394;2024-02-23T06:36:14;7.60;99.90
10468;DHT22;5281;48.878;9.394;2024-02-23T06:38:41;7.50;99.90
10468;DHT22;5281;48.878;9.394;2024-02-23T06:41:08;7.50;99.90
10468;DHT22;5281;48.878;9.394;2024-02-23T06:43:36;7.50;99.90
10468;DHT22;5281;48.878;9.394;2024-02-23T06:46:05;7.60;99.90
10468;DHT22;5281;48.878;9.394;2024-02-23T06:48:33;7.60;99.90
10468;DHT22;5281;48.878;9.394;2024-02-23T06:51:00;7.70;99.90
10468;DHT22;5281;48.878;9.394;2024-02-23T06:53:27;7.70;99.90
10468;DHT22;5281;48.878;9.394;2024-02-23T06:55:54;7.80;99.90
10468;DHT22;5281;48.878;9.394;2024-02-23T06:58:20;7.80;99.90
10468;DHT22;5281;48.878;9.394;2024-02-23T07:00:47;7.90;99.90
10468;DHT22;5281;48.878;9.394;2024-02-23T07:03:14;8.00;99.90
10468;DHT22;5281;48.878;9.394;2024-02-23T07:05:43;8.00;99.90
10468;DHT22;5281;48.878;9.394;2024-02-23T07:08:10;8.10;99.90
10468;DHT22;5281;48.878;9.394;2024-02-23T07:10:37;8.10;99.90
10468;DHT22;5281;48.878;9.394;2024-02-23T07:13:04;8.20;99.90
10468;DHT22;5281;48.878;9.394;2024-02-23T07:15:30;8.20;99.90
10468;DHT22;5281;48.878;9.394;2024-02-23T07:17:58;8.20;99.90
10468;DHT22;5281;48.878;9.394;2024-02-23T07:20:25;8.30;99.90
10468;DHT22;5281;48.878;9.394;2024-02-23T07:22:53;8.30;99.90
10468;DHT22;5281;48.878;9.394;2024-02-23T07:25:20;8.30;99.90
10468;DHT22;5281;48.878;9.394;2024-02-23T07:27:47;8.40;99.90
10468;DHT22;5281;48.878;9.394;2024-02-23T07:30:15;8.40;99.90
10468;DHT22;5281;48.878;9.394;2024-02-23T07:32:42;8.40;99.90
10468;DHT22;5281;48.878;9.394;2024-02-23T07:35:09;8.50;99.90
10468;DHT22;5281;48.878;9.394;2024-02-23T07:37:36;8.60;99.90
10468;DHT22;5281;48.878;9.394;2024-02-23T07:40:05;8.60;99.90
10468;DHT22;5281;48.878;9.394;2024-02-23T07:42:33;8.80;99.90
10468;DHT22;5281;48.878;9.394;2024-02-23T07:45:01;8.80;99.90
10468;DHT22;5281;48.878;9.394;2024-02-23T07:47:29;8.90;99.90
10468;DHT22;5281;48.878;9.394;2024-02-23T07:49:56;8.90;99.90
10468;DHT22;5281;48.878;9.394;2024-02-23T07:52:23;9.00;99.90
10468;DHT22;5281;48.878;9.394;2024-02-23T07:54:49;9.10;99.90
10468;DHT22;5281;48.878;9.394;2024-02-23T07:57:18;9.20;99.90
10468;DHT22;5281;48.878;9.394;2024-02-23T07:59:45;9.30;99.90
10468;DHT22;5281;48.878;9.394;2024-02-23T08:02:11;9.40;99.90
10468;DHT22;5281;48.878;9.394;2024-02-23T08:04:38;9.40;99.90
10468;DHT22;5281;48.878;9.394;2024-02-23T08:07:05;9.50;99.90
10468;DHT22;5281;48.878;9.394;2024-02-23T08:09:32;9.40;99.90
10468;DHT22;5281;48.878;9.394;2024-02-23T08:11:59;9.40;99.90
10468;DHT22;5281;48.878;9.394;2024-02-23T08:14:27;9.30;99.90
10468;DHT22;5281;48.878;9.394;2024-02-23T08:16:53;9.30;99.90
10468;DHT22;5281;48.878;9.394;2024-02-23T08:19:20;9.30;99.90
10468;DHT22;5281;48.878;9.394;2024-02-23T08:21:47;9.30;99.90
10468;DHT22;5281;48.878;9.394;2024-02-23T08:24:13;9.40;99.90
10468;DHT22;5281;48.878;9.394;2024-02-23T08:26:40;9.40;99.90
10468;DHT22;5281;48.878;9.394;2024-02-23T08:29:07;9.50;99.90
10468;DHT22;5281;48.878;9.394;2024-02-23T08:31:36;9.50;99.90
10468;DHT22;5281;48.878;9.394;2024-02-23T08:34:02;9.50;99.90
10468;DHT22;5281;48.878;9.394;2024-02-23T08:36:29;9.60;99.90
10468;DHT22;5281;48.878;9.394;2024-02-23T08:38:56;9.70;99.90
10468;DHT22;5281;48.878;9.394;2024-02-23T08:41:23;9.80;99.90
10468;DHT22;5281;48.878;9.394;2024-02-23T08:43:49;10.00;99.90
10468;DHT22;5281;48.878;9.394;2024-02-23T08:46:16;10.10;99.90
10468;DHT22;5281;48.878;9.394;2024-02-23T08:48:46;10.20;99.90
10468;DHT22;5281;48.878;9.394;2024-02-23T08:51:13;10.30;99.90
10468;DHT22;5281;48.878;9.394;2024-02-23T08:53:40;10.30;99.90
10468;DHT22;5281;48.878;9.394;2024-02-23T08:56:07;10.30;99.90
10468;DHT22;5281;48.878;9.394;2024-02-23T08:58:35;10.30;99.90
10468;DHT22;5281;48.878;9.394;2024-02-23T09:01:01;10.40;99.90
10468;DHT22;5281;48.878;9.394;2024-02-23T09:03:29;10.40;99.90
10468;DHT22;5281;48.878;9.394;2024-02-23T09:05:58;10.40;99.90
10468;DHT22;5281;48.878;9.394;2024-02-23T09:08:25;10.40;99.90
10468;DHT22;5281;48.878;9.394;2024-02-23T09:10:52;10.50;99.90
10468;DHT22;5281;48.878;9.394;2024-02-23T09:13:19;10.60;99.90
10468;DHT22;5281;48.878;9.394;2024-02-23T09:15:45;10.70;99.90
10468;DHT22;5281;48.878;9.394;2024-02-23T09:18:12;10.80;99.90
10468;DHT22;5281;48.878;9.394;2024-02-23T09:20:39;10.80;99.90
10468;DHT22;5281;48.878;9.394;2024-02-23T09:23:07;10.80;99.90
10468;DHT22;5281;48.878;9.394;2024-02-23T09:25:34;10.90;99.90
10468;DHT22;5281;48.878;9.394;2024-02-23T09:28:01;10.90;99.90
10468;DHT22;5281;48.878;9.394;2024-02-23T09:30:28;10.90;99.90
10468;DHT22;5281;48.878;9.394;2024-02-23T09:32:55;11.00;99.90
10468;DHT22;5281;48.878;9.394;2024-02-23T09:35:21;11.10;99.90
10468;DHT22;5281;48.878;9.394;2024-02-23T09:37:48;11.20;99.90
10468;DHT22;5281;48.878;9.394;2024-02-23T09:40:16;11.40;99.90
10468;DHT22;5281;48.878;9.394;2024-02-23T09:42:43;11.40;99.90
10468;DHT22;5281;48.878;9.394;2024-02-23T09:45:14;11.40;99.90
10468;DHT22;5281;48.878;9.394;2024-02-23T09:47:43;11.50;99.90
10468;DHT22;5281;48.878;9.394;2024-02-23T09:50:10;11.60;99.90
10468;DHT22;5281;48.878;9.394;2024-02-23T09:52:38;11.60;99.90
10468;DHT22;5281;48.878;9.394;2024-02-23T09:55:05;11.50;99.90
10468;DHT22;5281;48.878;9.394;2024-02-23T09:57:34;11.50;99.90
10468;DHT22;5281;48.878;9.394;2024-02-23T10:00:01;11.50;99.90
10468;DHT22;5281;48.878;9.394;2024-02-23T10:02:31;11.50;99.90
10468;DHT22;5281;48.878;9.394;2024-02-23T10:05:00;11.60;99.90
10468;DHT22;5281;48.878;9.394;2024-02-23T10:07:28;11.70;99.90
10468;DHT22;5281;48.878;9.394;2024-02-23T10:09:54;11.80;99.90
10468;DHT22;5281;48.878;9.394;2024-02-23T10:12:21;11.70;99.90
10468;DHT22;5281;48.878;9.394;2024-02-23T10:14:49;11.60;99.90
10468;DHT22;5281;48.878;9.394;2024-02-23T10:17:15;11.60;99.90
10468;DHT22;5281;48.878;9.394;2024-02-23T10:19:44;11.60;99.90
10468;DHT22;5281;48.878;9.394;2024-02-23T10:22:10;11.60;99.90
10468;DHT22;5281;48.878;9.394;2024-02-23T10:24:38;11.80;99.90
10468;DHT22;5281;48.878;9.394;2024-02-23T10:27:04;11.90;99.90
10468;DHT22;5281;48.878;9.394;2024-02-23T10:29:31;12.00;99.90
10468;DHT22;5281;48.878;9.394;2024-02-23T10:32:01;12.00;99.90
10468;DHT22;5281;48.878;9.394;2024-02-23T10:34:29;12.10;99.90
10468;DHT22;5281;48.878;9.394;2024-02-23T10:36:57;12.20;99.90
10468;DHT22;5281;48.878;9.394;2024-02-23T10:39:24;12.20;99.90
10468;DHT22;5281;48.878;9.394;2024-02-23T10:41:57;12.20;99.90
10468;DHT22;5281;48.878;9.394;2024-02-23T10:44:27;12.30;99.90
10468;DHT22;5281;48.878;9.394;2024-02-23T10:46:54;12.40;99.90
10468;DHT22;5281;48.878;9.394;2024-02-23T10:49:23;12.60;99.90
10468;DHT22;5281;48.878;9.394;2024-02-23T10:51:52;12.70;99.90
10468;DHT22;5281;48.878;9.394;2024-02-23T10:54:19;12.80;99.90
10468;DHT22;5281;48.878;9.394;2024-02-23T10:56:48;12.80;99.90
10468;DHT22;5281;48.878;9.394;2024-02-23T10:59:15;12.90;99.90
10468;DHT22;5281;48.878;9.394;2024-02-23T11:01:44;13.10;99.90
10468;DHT22;5281;48.878;9.394;2024-02-23T11:04:12;13.20;99.90
10468;DHT22;5281;48.878;9.394;2024-02-23T11:06:40;13.20;99.90
10468;DHT22;5281;48.878;9.394;2024-02-23T11:09:08;13.30;99.90
10468;DHT22;5281;48.878;9.394;2024-02-23T11:11:38;13.20;99.90
10468;DHT22;5281;48.878;9.394;2024-02-23T11:14:07;13.20;99.90
10468;DHT22;5281;48.878;9.394;2024-02-23T11:16:38;13.30;99.90
10468;DHT22;5281;48.878;9.394;2024-02-23T11:19:06;13.30;99.90
10468;DHT22;5281;48.878;9.394;2024-02-23T11:21:34;13.40;99.90
10468;DHT22;5281;48.878;9.394;2024-02-23T11:24:04;13.50;99.90
10468;DHT22;5281;48.878;9.394;2024-02-23T11:26:31;13.60;99.90
10468;DHT22;5281;48.878;9.394;2024-02-23T11:28:59;13.70;99.90
10468;DHT22;5281;48.878;9.394;2024-02-23T11:31:29;13.60;99.90
10468;DHT22;5281;48.878;9.394;2024-02-23T11:33:57;13.70;99.90
10468;DHT22;5281;48.878;9.394;2024-02-23T11:36:24;13.70;99.90
10468;DHT22;5281;48.878;9.394;2024-02-23T11:38:52;13.60;99.90
10468;DHT22;5281;48.878;9.394;2024-02-23T11:41:23;13.50;99.90
10468;DHT22;5281;48.878;9.394;2024-02-23T11:43:50;13.20;99.90
10468;DHT22;5281;48.878;9.394;2024-02-23T11:46:17;13.60;99.90
10468;DHT22;5281;48.878;9.394;2024-02-23T11:48:44;13.50;99.90
10468;DHT22;5281;48.878;9.394;2024-02-23T11:51:12;13.60;99.90
10468;DHT22;5281;48.878;9.394;2024-02-23T11:53:39;13.60;99.90
10468;DHT22;5281;48.878;9.394;2024-02-23T11:56:06;13.80;99.70
10468;DHT22;5281;48.878;9.394;2024-02-23T11:58:34;13.80;99.30
10468;DHT22;5281;48.878;9.394;2024-02-23T12:01:01;13.90;99.10
10468;DHT22;5281;48.878;9.394;2024-02-23T12:03:28;13.90;98.90
10468;DHT22;5281;48.878;9.394;2024-02-23T12:05:57;13.80;98.90
10468;DHT22;5281;48.878;9.394;2024-02-23T12:08:24;13.80;98.60
10468;DHT22;5281;48.878;9.394;2024-02-23T12:10:51;13.80;98.60
10468;DHT22;5281;48.878;9.394;2024-02-23T12:13:18;13.90;98.40
10468;DHT22;5281;48.878;9.394;2024-02-23T12:15:47;13.80;98.60
10468;DHT22;5281;48.878;9.394;2024-02-23T12:18:14;13.80;98.70
10468;DHT22;5281;48.878;9.394;2024-02-23T12:20:41;13.80;98.10
10468;DHT22;5281;48.878;9.394;2024-02-23T12:23:07;13.70;98.20
10468;DHT22;5281;48.878;9.394;2024-02-23T12:25:35;13.70;98.20
10468;DHT22;5281;48.878;9.394;2024-02-23T12:28:02;13.80;98.20
10468;DHT22;5281;48.878;9.394;2024-02-23T12:30:30;13.80;98.60
10468;DHT22;5281;48.878;9.394;2024-02-23T12:33:04;13.90;98.60
10468;DHT22;5281;48.878;9.394;2024-02-23T12:35:33;13.80;98.10
10468;DHT22;5281;48.878;9.394;2024-02-23T12:38:00;13.60;97.80
10468;DHT22;5281;48.878;9.394;2024-02-23T12:40:27;13.40;98.10
10468;DHT22;5281;48.878;9.394;2024-02-23T12:42:54;13.40;98.60
10468;DHT22;5281;48.878;9.394;2024-02-23T12:45:21;13.40;98.50
10468;DHT22;5281;48.878;9.394;2024-02-23T12:47:47;13.50;98.40
10468;DHT22;5281;48.878;9.394;2024-02-23T12:50:16;13.60;98.50
10468;DHT22;5281;48.878;9.394;2024-02-23T12:52:42;13.50;98.20
10468;DHT22;5281;48.878;9.394;2024-02-23T12:55:10;13.50;98.20
10468;DHT22;5281;48.878;9.394;2024-02-23T12:57:36;13.50;98.50
10468;DHT22;5281;48.878;9.394;2024-02-23T13:00:04;13.40;98.30
10468;DHT22;5281;48.878;9.394;2024-02-23T13:02:31;13.40;98.10
10468;DHT22;5281;48.878;9.394;2024-02-23T13:04:58;13.40;98.20
10468;DHT22;5281;48.878;9.394;2024-02-23T13:07:26;13.50;98.00
10468;DHT22;5281;48.878;9.394;2024-02-23T13:09:53;13.40;98.20
10468;DHT22;5281;48.878;9.394;2024-02-23T13:12:20;13.40;97.90
10468;DHT22;5281;48.878;9.394;2024-02-23T13:14:46;13.40;98.40
10468;DHT22;5281;48.878;9.394;2024-02-23T13:17:13;13.30;98.40
10468;DHT22;5281;48.878;9.394;2024-02-23T13:19:39;13.30;98.40
10468;DHT22;5281;48.878;9.394;2024-02-23T13:22:07;13.40;98.60
10468;DHT22;5281;48.878;9.394;2024-02-23T13:24:35;13.50;98.70
10468;DHT22;5281;48.878;9.394;2024-02-23T13:27:02;13.60;98.30
10468;DHT22;5281;48.878;9.394;2024-02-23T13:29:29;13.80;98.50
10468;DHT22;5281;48.878;9.394;2024-02-23T13:31:55;13.80;98.40
10468;DHT22;5281;48.878;9.394;2024-02-23T13:34:22;13.90;98.50
10468;DHT22;5281;48.878;9.394;2024-02-23T13:36:49;14.00;98.60
10468;DHT22;5281;48.878;9.394;2024-02-23T13:39:17;14.00;98.40
10468;DHT22;5281;48.878;9.394;2024-02-23T13:41:45;13.90;98.40
10468;DHT22;5281;48.878;9.394;2024-02-23T13:44:12;13.90;98.60
10468;DHT22;5281;48.878;9.394;2024-02-23T13:46:39;13.90;98.90
10468;DHT22;5281;48.878;9.394;2024-02-23T13:49:06;13.90;98.50
10468;DHT22;5281;48.878;9.394;2024-02-23T13:51:34;13.90;98.50
10468;DHT22;5281;48.878;9.394;2024-02-23T13:54:01;13.90;98.80
10468;DHT22;5281;48.878;9.394;2024-02-23T13:56:28;13.90;98.60
10468;DHT22;5281;48.878;9.394;2024-02-23T13:58:56;13.90;98.90
10468;DHT22;5281;48.878;9.394;2024-02-23T14:01:23;13.80;98.60
10468;DHT22;5281;48.878;9.394;2024-02-23T14:03:50;13.80;98.70
10468;DHT22;5281;48.878;9.394;2024-02-23T14:06:16;13.70;98.70
10468;DHT22;5281;48.878;9.394;2024-02-23T14:08:43;13.70;98.50
10468;DHT22;5281;48.878;9.394;2024-02-23T14:11:12;13.50;98.50
10468;DHT22;5281;48.878;9.394;2024-02-23T14:13:39;13.40;99.30
10468;DHT22;5281;48.878;9.394;2024-02-23T14:16:07;13.40;99.30
10468;DHT22;5281;48.878;9.394;2024-02-23T14:18:34;13.50;99.10
10468;DHT22;5281;48.878;9.394;2024-02-23T14:21:03;13.50;99.00
10468;DHT22;5281;48.878;9.394;2024-02-23T14:23:30;13.60;99.30
10468;DHT22;5281;48.878;9.394;2024-02-23T14:25:57;13.60;99.00
10468;DHT22;5281;48.878;9.394;2024-02-23T14:28:24;13.60;98.80
10468;DHT22;5281;48.878;9.394;2024-02-23T14:30:50;13.50;98.90
10468;DHT22;5281;48.878;9.394;2024-02-23T14:33:19;13.60;99.10
10468;DHT22;5281;48.878;9.394;2024-02-23T14:35:46;13.70;99.00
10468;DHT22;5281;48.878;9.394;2024-02-23T14:38:14;13.70;98.80
10468;DHT22;5281;48.878;9.394;2024-02-23T14:40:41;13.80;99.10
10468;DHT22;5281;48.878;9.394;2024-02-23T14:43:08;13.80;99.00
10468;DHT22;5281;48.878;9.394;2024-02-23T14:45:35;13.70;98.50
10468;DHT22;5281;48.878;9.394;2024-02-23T14:48:02;13.70;98.60
10468;DHT22;5281;48.878;9.394;2024-02-23T14:50:30;13.70;98.70
10468;DHT22;5281;48.878;9.394;2024-02-23T14:52:56;13.70;98.30
10468;DHT22;5281;48.878;9.394;2024-02-23T14:55:23;13.70;98.30
10468;DHT22;5281;48.878;9.394;2024-02-23T14:57:49;13.60;98.50
10468;DHT22;5281;48.878;9.394;2024-02-23T15:00:17;13.50;98.80
10468;DHT22;5281;48.878;9.394;2024-02-23T15:02:44;13.60;98.60
10468;DHT22;5281;48.878;9.394;2024-02-23T15:05:11;13.50;98.70
10468;DHT22;5281;48.878;9.394;2024-02-23T15:07:39;13.50;98.60
10468;DHT22;5281;48.878;9.394;2024-02-23T15:10:06;13.50;98.80
10468;DHT22;5281;48.878;9.394;2024-02-23T15:12:34;13.50;98.80
10468;DHT22;5281;48.878;9.394;2024-02-23T15:15:01;13.50;98.80
10468;DHT22;5281;48.878;9.394;2024-02-23T15:17:29;13.50;98.70
10468;DHT22;5281;48.878;9.394;2024-02-23T15:19:56;13.50;98.90
10468;DHT22;5281;48.878;9.394;2024-02-23T15:22:22;13.60;98.80
10468;DHT22;5281;48.878;9.394;2024-02-23T15:24:52;13.60;98.50
10468;DHT22;5281;48.878;9.394;2024-02-23T15:27:19;13.60;98.20
10468;DHT22;5281;48.878;9.394;2024-02-23T15:29:46;13.50;98.30
10468;DHT22;5281;48.878;9.394;2024-02-23T15:32:14;13.40;98.60
10468;DHT22;5281;48.878;9.394;2024-02-23T15:34:40;13.30;98.60
10468;DHT22;5281;48.878;9.394;2024-02-23T15:37:07;13.10;98.80
10468;DHT22;5281;48.878;9.394;2024-02-23T15:39:34;13.00;99.00
10468;DHT22;5281;48.878;9.394;2024-02-23T15:42:02;12.90;99.40
10468;DHT22;5281;48.878;9.394;2024-02-23T15:44:29;12.90;99.40
10468;DHT22;5281;48.878;9.394;2024-02-23T15:46:56;12.80;99.30
10468;DHT22;5281;48.878;9.394;2024-02-23T15:49:22;12.70;99.70
10468;DHT22;5281;48.878;9.394;2024-02-23T15:51:50;12.60;99.80
10468;DHT22;5281;48.878;9.394;2024-02-23T15:54:16;12.70;99.80